Platteville, Colorado
Current Conditions -  °F | °C
As of 2:15 AM on Monday 24 Nov 2014 (Local Time) from KEIK Reporting Station
Clear Clear  
Wind Chill: 25°   Ceiling: Unl
Heat Index: 32°   Visibility: 10mi
Dew Point:   Wind: 8mph
Humidity: 33%   Direction: 290°WNW
Pressure: 29.87"   Gusts: 22mph
Location:  40.21°N, 104.82°W
Report Text: KEIK 240915Z AUTO 29007G19KT 10SM CLR 00/M15 A2987 RMK AO2 T10011147
Loading
Personal Weather Stations






























Interactive Weather Map New forecast layout! Learn more

10-Day Weather Forecast

Advertisements
Track Severe Weather on mobile